Darstellungsparameter: Aktuell verwendete Einstellungen:
Skalierung der Graphiken ... ?
xyx+y,   Skalierungsfaktor:      Skalierung: Modus: x, Faktor: 1
Darstellungszeitraum ... ?
Vom - - bis: - -   Zeitraum: 23.04.2020 - 24.04.2020
Min/Max/Avg-Anzeige ... ?
Zeige MMA aktuell
Zeige MMA Monat
Zeige MMA alles
Zeige --A aktuell
Zeige --A Monat
Zeige --A alles
Keine MMA-Anzeige
MMA:
Keine MMA-Graphiken
MMA-Basis: 23.04.2020 - 24.04.2020
Quicknavigation für Darstellung... ?
Tage:      1T, 2T, 3T, 5T -1T -2T -3T -5T +1T +2T +3T +5T
Wochen: 1W, 2W, 3W -1W -2W -3W +1W +2W +3W
Monate: 1M, 3M, 6M -1M -3M -6M +1M +3M +6M
Jahre:    1J, 3J, 5J, 10J -1J -3J -5J -10J +1J +3J +5J +10J
Nutze für die Darstellung ... ?
Originaldaten oder Mittelwerte auf ...
Stundenbasis Tagesbasis Wochenbasis
Monatsbasis Jahresbasis      Datenbasis: Original-Daten
Darstellen als:
Statistik (Auto) Statistik J:M      Darstellung:
Zur Graphik,    zurück zur Übersicht aller Sensoren.
 
Tabellarische Datenbersicht: ?
 
Sensor: Nr:Datum:Temp:Feuchte:
Aussen-T/F 1 23-04-2020 00:02:17 12.6 C 20 %
2 23-04-2020 00:12:17 12.4 C 20 %
3 23-04-2020 00:22:17 12.4 C 20 %
4 23-04-2020 00:32:17 12.2 C 20 %
5 23-04-2020 00:42:17 12.2 C 20 %
6 23-04-2020 00:52:17 12.3 C 20 %
7 23-04-2020 01:02:17 12.1 C 20 %
8 23-04-2020 01:12:17 11.9 C 20 %
9 23-04-2020 01:22:18 11 C 20 %
10 23-04-2020 01:32:17 12 C 20 %
11 23-04-2020 01:42:17 10.9 C 20 %
12 23-04-2020 01:52:17 10.5 C 22 %
13 23-04-2020 02:02:17 9.7 C 25 %
14 23-04-2020 02:12:17 9.7 C 26 %
15 23-04-2020 02:22:18 9.7 C 25 %
16 23-04-2020 02:32:17 9.8 C 26 %
17 23-04-2020 02:42:17 9.6 C 25 %
18 23-04-2020 02:52:17 9.3 C 26 %
19 23-04-2020 03:02:18 9.2 C 26 %
20 23-04-2020 03:12:18 9.2 C 26 %
21 23-04-2020 03:22:17 9.4 C 26 %
22 23-04-2020 03:32:17 9.4 C 26 %
23 23-04-2020 03:42:17 9.3 C 26 %
24 23-04-2020 03:52:17 9.1 C 26 %
25 23-04-2020 04:02:17 8.6 C 27 %
Sensor: Nr:Datum:Temp:Feuchte:
Aussen-T/F 26 23-04-2020 04:12:17 8.1 C 29 %
27 23-04-2020 04:22:17 7.5 C 30 %
28 23-04-2020 04:32:17 7.2 C 32 %
29 23-04-2020 04:42:17 7.2 C 32 %
30 23-04-2020 04:52:17 6.9 C 33 %
31 23-04-2020 05:02:17 6.4 C 34 %
32 23-04-2020 05:12:17 6.2 C 34 %
33 23-04-2020 05:22:17 5.9 C 35 %
34 23-04-2020 05:32:17 6 C 35 %
35 23-04-2020 05:42:17 6 C 35 %
36 23-04-2020 05:52:17 5.8 C 36 %
37 23-04-2020 06:02:17 5.8 C 36 %
38 23-04-2020 06:12:18 5.4 C 36 %
39 23-04-2020 06:22:17 5.4 C 36 %
40 23-04-2020 06:32:18 5.3 C 36 %
41 23-04-2020 06:42:18 5.3 C 36 %
42 23-04-2020 06:52:17 5.3 C 36 %
43 23-04-2020 07:02:17 5.3 C 37 %
44 23-04-2020 07:12:17 5.3 C 37 %
45 23-04-2020 07:22:17 5.2 C 37 %
46 23-04-2020 07:32:17 5.2 C 39 %
47 23-04-2020 07:42:17 5.2 C 39 %
48 23-04-2020 07:52:17 5.3 C 39 %
49 23-04-2020 08:02:17 5.4 C 39 %
50 23-04-2020 08:12:18 5.5 C 39 %
Sensor: Nr:Datum:Temp:Feuchte:
Aussen-T/F 51 23-04-2020 08:22:18 5.9 C 39 %
52 23-04-2020 08:32:18 6.2 C 38 %
53 23-04-2020 08:42:18 6.5 C 38 %
54 23-04-2020 08:52:17 6.9 C 38 %
55 23-04-2020 09:02:17 7.7 C 36 %
56 23-04-2020 09:12:17 8.1 C 36 %
57 23-04-2020 09:22:17 8.6 C 35 %
58 23-04-2020 09:32:17 9.2 C 35 %
59 23-04-2020 09:42:17 9.7 C 34 %
60 23-04-2020 09:52:17 9.9 C 34 %
61 23-04-2020 10:02:18 10.5 C 33 %
62 23-04-2020 10:12:18 11 C 32 %
63 23-04-2020 10:22:17 11.8 C 30 %
64 23-04-2020 10:32:17 12.7 C 28 %
65 23-04-2020 10:42:17 13.2 C 27 %
66 23-04-2020 10:52:17 14.8 C 22 %
67 23-04-2020 11:02:18 16 C 20 %
68 23-04-2020 11:12:18 16.3 C 20 %
69 23-04-2020 11:22:17 17.2 C 20 %
70 23-04-2020 11:32:17 17.4 C 20 %
71 23-04-2020 11:42:17 17.7 C 20 %
72 23-04-2020 11:52:18 17.9 C 20 %
73 23-04-2020 12:02:17 18.9 C 20 %
74 23-04-2020 12:12:17 18.2 C 20 %
75 23-04-2020 12:22:17 18 C 20 %
Sensor: Nr:Datum:Temp:Feuchte:
Aussen-T/F 76 23-04-2020 12:32:18 18.5 C 20 %
77 23-04-2020 12:42:18 18.3 C 20 %
78 23-04-2020 12:52:17 18.4 C 20 %
79 23-04-2020 13:02:17 19.2 C 20 %
80 23-04-2020 13:12:17 19.5 C 20 %
81 23-04-2020 13:22:17 19.1 C 20 %
82 23-04-2020 13:32:17 19.2 C 20 %
83 23-04-2020 13:42:17 19.7 C 20 %
84 23-04-2020 13:52:17 20.1 C 20 %
85 23-04-2020 14:02:17 20.4 C 20 %
86 23-04-2020 14:12:17 20.7 C 20 %
87 23-04-2020 14:22:17 21.6 C 20 %
88 23-04-2020 14:32:17 27.4 C 20 %
89 23-04-2020 14:42:17 29.1 C 20 %
90 23-04-2020 14:52:17 29 C 20 %
91 23-04-2020 15:02:17 29.3 C 20 %
92 23-04-2020 15:12:17 29.5 C 20 %
93 23-04-2020 15:22:18 28.8 C 20 %
94 23-04-2020 15:32:17 30.3 C 20 %
95 23-04-2020 15:42:17 31.4 C 20 %
96 23-04-2020 15:52:17 28.9 C 20 %
97 23-04-2020 16:02:18 27.7 C 20 %
98 23-04-2020 16:12:18 28.1 C 20 %
99 23-04-2020 16:22:17 28.4 C 20 %
100 23-04-2020 16:32:18 28.3 C 20 %
Sensor: Nr:Datum:Temp:Feuchte:
Aussen-T/F 101 23-04-2020 16:42:18 29 C 20 %
102 23-04-2020 16:52:17 29.2 C 20 %
103 23-04-2020 17:02:17 31.6 C 20 %
104 23-04-2020 17:12:18 28.2 C 20 %
105 23-04-2020 17:22:17 28.6 C 20 %
106 23-04-2020 17:32:18 28.1 C 20 %
107 23-04-2020 17:42:18 28 C 20 %
108 23-04-2020 17:52:18 30.1 C 20 %
109 23-04-2020 18:02:17 27.1 C 20 %
110 23-04-2020 18:12:17 24.5 C 20 %
111 23-04-2020 18:22:17 23.9 C 20 %
112 23-04-2020 18:32:17 23.6 C 20 %
113 23-04-2020 18:42:17 23.7 C 20 %
114 23-04-2020 18:52:17 23.2 C 20 %
115 23-04-2020 19:02:17 22.5 C 20 %
116 23-04-2020 19:12:17 22.4 C 20 %
117 23-04-2020 19:22:17 22 C 20 %
118 23-04-2020 19:32:18 21.2 C 20 %
119 23-04-2020 19:42:18 20 C 20 %
120 23-04-2020 19:52:17 18.6 C 20 %
121 23-04-2020 20:02:18 18.6 C 20 %
122 23-04-2020 20:12:18 17.9 C 20 %
123 23-04-2020 20:22:17 17.2 C 20 %
124 23-04-2020 20:32:18 16.5 C 20 %
125 23-04-2020 20:42:18 15.5 C 20 %
Sensor: Nr:Datum:Temp:Feuchte:
Aussen-T/F 126 23-04-2020 20:52:18 14.3 C 20 %
127 23-04-2020 21:02:18 14 C 20 %
128 23-04-2020 21:12:18 14.1 C 20 %
129 23-04-2020 21:22:17 13.5 C 20 %
130 23-04-2020 21:32:17 13.1 C 20 %
131 23-04-2020 21:42:17 12.9 C 20 %
132 23-04-2020 21:52:17 12.5 C 20 %
133 23-04-2020 22:02:17 12 C 23 %
134 23-04-2020 22:12:17 11.6 C 25 %
135 23-04-2020 22:22:17 11.5 C 25 %
136 23-04-2020 22:32:18 11 C 26 %
137 23-04-2020 22:42:18 11.1 C 26 %
138 23-04-2020 22:52:18 10.8 C 26 %
139 23-04-2020 23:02:18 10.4 C 27 %
140 23-04-2020 23:12:18 10.3 C 27 %
141 23-04-2020 23:22:18 9.6 C 29 %
142 23-04-2020 23:32:17 9.6 C 29 %
143 23-04-2020 23:42:17 9.6 C 29 %
144 23-04-2020 23:52:17 9.2 C 30 %
145 24-04-2020 00:02:18 9.2 C 30 %
146 24-04-2020 00:12:18 9.3 C 30 %
147 24-04-2020 00:22:17 9.2 C 30 %
148 24-04-2020 00:32:18 8.6 C 31 %
149 24-04-2020 00:42:18 8.4 C 31 %
150 24-04-2020 00:52:17 8.3 C 32 %
Sensor: Nr:Datum:Temp:Feuchte:
Aussen-T/F 151 24-04-2020 01:02:18 8.1 C 32 %
152 24-04-2020 01:12:18 8.3 C 33 %
153 24-04-2020 01:22:17 8.1 C 32 %
154 24-04-2020 01:32:18 8.1 C 33 %
155 24-04-2020 01:42:18 8.2 C 33 %
156 24-04-2020 01:52:17 7.8 C 33 %
157 24-04-2020 02:02:17 7.5 C 34 %
158 24-04-2020 02:12:17 7.1 C 34 %
159 24-04-2020 02:22:17 7 C 35 %
160 24-04-2020 02:32:18 7.2 C 35 %
161 24-04-2020 02:42:18 6.8 C 36 %
162 24-04-2020 02:52:18 7 C 35 %
163 24-04-2020 03:02:17 7 C 35 %
164 24-04-2020 03:12:18 6.8 C 36 %
165 24-04-2020 03:22:17 6.2 C 36 %
166 24-04-2020 03:32:17 6.4 C 37 %
167 24-04-2020 03:42:17 6.3 C 37 %
168 24-04-2020 03:52:17 6.2 C 37 %
169 24-04-2020 04:02:17 6.2 C 37 %
170 24-04-2020 04:12:17 6.1 C 37 %
171 24-04-2020 04:22:17 6 C 37 %
172 24-04-2020 04:32:17 5.9 C 38 %
173 24-04-2020 04:42:17 6.2 C 38 %
174 24-04-2020 04:52:17 6.3 C 38 %
175 24-04-2020 05:02:17 6.2 C 38 %
Sensor: Nr:Datum:Temp:Feuchte:
Aussen-T/F 176 24-04-2020 05:12:17 6 C 38 %
177 24-04-2020 05:22:17 5.9 C 39 %
178 24-04-2020 05:32:18 6.3 C 38 %
179 24-04-2020 05:42:18 6.2 C 38 %
180 24-04-2020 05:52:17 6.1 C 38 %
181 24-04-2020 06:02:17 6.1 C 38 %
182 24-04-2020 06:12:17 5.9 C 39 %
183 24-04-2020 06:22:18 6 C 39 %
184 24-04-2020 06:32:17 6 C 38 %
185 24-04-2020 06:42:17 6 C 39 %
186 24-04-2020 06:52:17 6.2 C 39 %
187 24-04-2020 07:02:17 6.3 C 38 %
188 24-04-2020 07:12:17 6.3 C 39 %
189 24-04-2020 07:22:17 6.3 C 39 %
190 24-04-2020 07:32:18 6.3 C 39 %
191 24-04-2020 07:42:18 6.5 C 39 %
192 24-04-2020 07:52:17 6.7 C 39 %
193 24-04-2020 08:02:18 6.8 C 39 %
194 24-04-2020 08:12:18 7.3 C 38 %
195 24-04-2020 08:22:17 8.2 C 36 %
196 24-04-2020 08:32:17 9 C 35 %
197 24-04-2020 08:42:17 9.6 C 35 %
198 24-04-2020 08:52:17 9.9 C 34 %
199 24-04-2020 09:02:17 10.4 C 33 %
200 24-04-2020 09:12:18 11 C 32 %
Sensor: Nr:Datum:Temp:Feuchte:
Aussen-T/F 201 24-04-2020 09:22:17 11.5 C 31 %
202 24-04-2020 09:32:18 11.9 C 31 %
203 24-04-2020 09:42:18 12.5 C 30 %
204 24-04-2020 09:52:17 12.4 C 30 %
205 24-04-2020 10:02:17 12.8 C 30 %
206 24-04-2020 10:12:17 13.1 C 29 %
207 24-04-2020 10:22:17 14 C 28 %
208 24-04-2020 10:32:17 14.2 C 28 %
209 24-04-2020 10:42:17 14.6 C 27 %
210 24-04-2020 10:52:17 15 C 26 %
211 24-04-2020 11:02:17 15.6 C 26 %
212 24-04-2020 11:12:18 15.6 C 26 %
213 24-04-2020 11:22:17 16.5 C 25 %
214 24-04-2020 11:32:18 16.6 C 24 %
215 24-04-2020 11:42:18 17 C 24 %
216 24-04-2020 11:52:17 17 C 23 %
217 24-04-2020 12:02:17 17.9 C 23 %
218 24-04-2020 12:12:17 18.1 C 21 %
219 24-04-2020 12:22:17 18.2 C 21 %
220 24-04-2020 12:32:18 18.4 C 21 %
221 24-04-2020 12:42:18 18.9 C 20 %
222 24-04-2020 12:52:18 19.3 C 20 %
223 24-04-2020 13:02:17 19.6 C 20 %
224 24-04-2020 13:12:17 20.2 C 20 %
225 24-04-2020 13:22:17 20.5 C 20 %
Sensor: Nr:Datum:Temp:Feuchte:
Aussen-T/F 226 24-04-2020 13:32:18 20.7 C 20 %
227 24-04-2020 13:42:18 21 C 20 %
228 24-04-2020 13:52:17 21.3 C 20 %
229 24-04-2020 14:02:17 21.8 C 20 %
230 24-04-2020 14:12:17 22.2 C 20 %
231 24-04-2020 14:22:17 23.5 C 20 %
232 24-04-2020 14:32:17 26.8 C 20 %
233 24-04-2020 14:42:17 28.5 C 20 %
234 24-04-2020 14:52:17 27.1 C 20 %
235 24-04-2020 15:02:18 28 C 20 %
236 24-04-2020 15:12:18 31 C 20 %
237 24-04-2020 15:22:17 27.6 C 20 %
238 24-04-2020 15:32:17 28.1 C 20 %
239 24-04-2020 15:42:18 27.5 C 20 %
240 24-04-2020 15:52:17 28.8 C 20 %
241 24-04-2020 16:02:18 28.7 C 20 %
242 24-04-2020 16:12:18 28.7 C 20 %
243 24-04-2020 16:22:18 27.2 C 20 %
244 24-04-2020 16:32:18 26.8 C 20 %
245 24-04-2020 16:42:18 28 C 20 %
246 24-04-2020 16:52:17 26.3 C 20 %
247 24-04-2020 17:02:17 26 C 20 %
248 24-04-2020 17:12:17 26.7 C 20 %
249 24-04-2020 17:22:18 26.4 C 20 %
250 24-04-2020 17:32:18 26.3 C 20 %
Sensor: Nr:Datum:Temp:Feuchte:
Aussen-T/F 251 24-04-2020 17:42:18 24.2 C 20 %
252 24-04-2020 17:52:17 26 C 20 %
253 24-04-2020 18:02:18 24.1 C 20 %
254 24-04-2020 18:12:18 22.3 C 20 %
255 24-04-2020 18:22:17 22.2 C 20 %
256 24-04-2020 18:32:17 22 C 20 %
257 24-04-2020 18:42:17 20.9 C 20 %
258 24-04-2020 18:52:18 21 C 20 %
259 24-04-2020 19:02:17 20.5 C 20 %
260 24-04-2020 19:12:17 20.3 C 20 %
261 24-04-2020 19:23:17 20 C 20 %
262 24-04-2020 19:32:17 19.9 C 20 %
263 24-04-2020 19:42:18 19.6 C 20 %
264 24-04-2020 19:53:17 19.2 C 20 %
265 24-04-2020 20:02:18 19 C 20 %
266 24-04-2020 20:12:18 18.5 C 20 %
267 24-04-2020 20:22:17 17.7 C 20 %
268 24-04-2020 20:32:18 17.3 C 20 %
269 24-04-2020 20:42:18 16.8 C 20 %
270 24-04-2020 20:52:18 16.1 C 20 %
271 24-04-2020 21:02:18 15.9 C 20 %
272 24-04-2020 21:12:18 15.5 C 20 %
273 24-04-2020 21:23:17 15.4 C 20 %
274 24-04-2020 21:33:17 15 C 20 %
275 24-04-2020 21:42:17 15.1 C 20 %
Sensor: Nr:Datum:Temp:Feuchte:
Aussen-T/F 276 24-04-2020 21:52:17 14.7 C 20 %
277 24-04-2020 22:03:17 14.4 C 20 %
278 24-04-2020 22:13:17 14.1 C 20 %
279 24-04-2020 22:22:18 14.2 C 20 %
280 24-04-2020 22:32:18 14.4 C 20 %
281 24-04-2020 22:42:18 13.9 C 20 %
282 24-04-2020 22:52:18 13.3 C 20 %
283 24-04-2020 23:02:18 13.2 C 20 %
284 24-04-2020 23:12:18 13.2 C 20 %
285 24-04-2020 23:22:17 12.7 C 20 %
286 24-04-2020 23:33:17 12.5 C 20 %
287 24-04-2020 23:43:17 13 C 20 %
288 24-04-2020 23:53:17 12.4 C 20 %
Sensor: Nr:Datum:Temp:Feuchte:
G-T/H 1 23-04-2020 00:02:17 13.8 C 60 %
2 23-04-2020 00:12:17 13.9 C 60 %
3 23-04-2020 00:22:17 13.8 C 60 %
4 23-04-2020 00:32:17 13.9 C 60 %
5 23-04-2020 00:42:17 13.9 C 60 %
6 23-04-2020 00:52:17 13.8 C 60 %
7 23-04-2020 01:02:17 13.9 C 60 %
8 23-04-2020 01:12:17 13.8 C 60 %
9 23-04-2020 01:22:18 13.8 C 60 %
10 23-04-2020 01:32:17 13.8 C 60 %
11 23-04-2020 01:42:17 13.8 C 60 %
12 23-04-2020 01:52:17 13.8 C 60 %
13 23-04-2020 02:02:17 13.8 C 60 %
14 23-04-2020 02:12:17 13.8 C 60 %
15 23-04-2020 02:22:18 13.8 C 60 %
16 23-04-2020 02:32:17 13.8 C 60 %
17 23-04-2020 02:42:17 13.8 C 60 %
18 23-04-2020 02:52:17 13.8 C 60 %
19 23-04-2020 03:02:18 13.8 C 60 %
20 23-04-2020 03:12:18 13.8 C 59 %
21 23-04-2020 03:22:17 13.8 C 59 %
22 23-04-2020 03:32:17 13.8 C 59 %
23 23-04-2020 03:42:17 13.8 C 59 %
24 23-04-2020 03:52:17 13.8 C 59 %
25 23-04-2020 04:02:17 13.8 C 59 %
Sensor: Nr:Datum:Temp:Feuchte:
G-T/H 26 23-04-2020 04:12:17 13.7 C 59 %
27 23-04-2020 04:22:17 13.7 C 59 %
28 23-04-2020 04:32:17 13.7 C 59 %
29 23-04-2020 04:42:17 13.7 C 58 %
30 23-04-2020 04:52:17 13.7 C 58 %
31 23-04-2020 05:02:17 13.7 C 58 %
32 23-04-2020 05:12:17 13.7 C 58 %
33 23-04-2020 05:22:17 13.7 C 58 %
34 23-04-2020 05:32:17 13.7 C 58 %
35 23-04-2020 05:42:17 13.6 C 58 %
36 23-04-2020 05:52:17 13.6 C 58 %
37 23-04-2020 06:02:17 13.6 C 58 %
38 23-04-2020 06:12:18 13.6 C 58 %
39 23-04-2020 06:22:17 13.6 C 58 %
40 23-04-2020 06:32:18 13.6 C 58 %
41 23-04-2020 06:42:18 13.5 C 58 %
42 23-04-2020 06:52:17 13.5 C 58 %
43 23-04-2020 07:02:17 13.5 C 58 %
44 23-04-2020 07:12:17 13.5 C 58 %
45 23-04-2020 07:22:17 13.5 C 58 %
46 23-04-2020 07:32:17 13.5 C 58 %
47 23-04-2020 07:42:17 13.5 C 58 %
48 23-04-2020 07:52:17 13.5 C 58 %
49 23-04-2020 08:02:17 13.4 C 58 %
50 23-04-2020 08:12:18 13.4 C 58 %
Sensor: Nr:Datum:Temp:Feuchte:
G-T/H 51 23-04-2020 08:22:18 13.4 C 58 %
52 23-04-2020 08:32:18 13.4 C 58 %
53 23-04-2020 08:42:18 13.4 C 58 %
54 23-04-2020 08:52:17 13.3 C 58 %
55 23-04-2020 09:02:17 13.3 C 58 %
56 23-04-2020 09:12:17 13.4 C 58 %
57 23-04-2020 09:22:17 13.3 C 58 %
58 23-04-2020 09:32:17 13.3 C 58 %
59 23-04-2020 09:42:17 13.3 C 58 %
60 23-04-2020 09:52:17 13.3 C 59 %
61 23-04-2020 10:02:18 13.3 C 59 %
62 23-04-2020 10:12:18 13.3 C 59 %
63 23-04-2020 10:22:17 13.3 C 59 %
64 23-04-2020 10:32:17 13.3 C 59 %
65 23-04-2020 10:42:17 13.2 C 59 %
66 23-04-2020 10:52:17 13.2 C 59 %
67 23-04-2020 11:02:18 13.2 C 59 %
68 23-04-2020 11:12:18 13.2 C 59 %
69 23-04-2020 11:22:17 13.2 C 60 %
70 23-04-2020 11:32:17 13.2 C 60 %
71 23-04-2020 11:42:17 13.2 C 60 %
72 23-04-2020 11:52:18 13.3 C 60 %
73 23-04-2020 12:02:17 13.3 C 61 %
74 23-04-2020 12:12:17 13.3 C 61 %
75 23-04-2020 12:22:17 13.3 C 61 %
Sensor: Nr:Datum:Temp:Feuchte:
G-T/H 76 23-04-2020 12:32:18 13.3 C 61 %
77 23-04-2020 12:42:18 13.3 C 61 %
78 23-04-2020 12:52:17 13.3 C 61 %
79 23-04-2020 13:02:17 13.3 C 61 %
80 23-04-2020 13:12:17 13.4 C 61 %
81 23-04-2020 13:22:17 13.3 C 61 %
82 23-04-2020 13:32:17 13.4 C 61 %
83 23-04-2020 13:42:17 13.4 C 61 %
84 23-04-2020 13:52:17 13.4 C 61 %
85 23-04-2020 14:02:17 13.4 C 61 %
86 23-04-2020 14:12:17 13.5 C 61 %
87 23-04-2020 14:22:17 13.4 C 61 %
88 23-04-2020 14:32:17 13.4 C 61 %
89 23-04-2020 14:42:17 13.5 C 61 %
90 23-04-2020 14:52:17 13.5 C 60 %
91 23-04-2020 15:02:17 13.5 C 60 %
92 23-04-2020 15:12:17 13.5 C 60 %
93 23-04-2020 15:22:18 13.5 C 60 %
94 23-04-2020 15:32:17 13.5 C 60 %
95 23-04-2020 15:42:17 13.6 C 61 %
96 23-04-2020 15:52:17 13.6 C 61 %
97 23-04-2020 16:02:18 13.6 C 61 %
98 23-04-2020 16:12:18 13.7 C 61 %
99 23-04-2020 16:22:17 13.7 C 61 %
100 23-04-2020 16:32:18 13.7 C 61 %
Sensor: Nr:Datum:Temp:Feuchte:
G-T/H 101 23-04-2020 16:42:18 13.7 C 61 %
102 23-04-2020 16:52:17 13.7 C 61 %
103 23-04-2020 17:02:17 13.8 C 61 %
104 23-04-2020 17:12:18 13.7 C 61 %
105 23-04-2020 17:22:17 13.8 C 61 %
106 23-04-2020 17:32:18 13.8 C 61 %
107 23-04-2020 17:42:18 13.8 C 61 %
108 23-04-2020 17:52:18 13.9 C 61 %
109 23-04-2020 18:02:17 13.9 C 61 %
110 23-04-2020 18:12:17 13.9 C 61 %
111 23-04-2020 18:22:17 14 C 60 %
112 23-04-2020 18:32:17 14 C 60 %
113 23-04-2020 18:42:17 14 C 60 %
114 23-04-2020 18:52:17 14 C 60 %
115 23-04-2020 19:02:17 14 C 60 %
116 23-04-2020 19:12:17 14.1 C 60 %
117 23-04-2020 19:22:17 14.1 C 60 %
118 23-04-2020 19:32:18 14 C 60 %
119 23-04-2020 19:42:18 14.1 C 60 %
120 23-04-2020 19:52:17 14.1 C 60 %
121 23-04-2020 20:02:18 14.1 C 60 %
122 23-04-2020 20:12:18 14.1 C 60 %
123 23-04-2020 20:22:17 14.1 C 60 %
124 23-04-2020 20:32:18 14.1 C 60 %
125 23-04-2020 20:42:18 14 C 60 %
Sensor: Nr:Datum:Temp:Feuchte:
G-T/H 126 23-04-2020 20:52:18 14.1 C 60 %
127 23-04-2020 21:02:18 14.1 C 60 %
128 23-04-2020 21:12:18 14.1 C 60 %
129 23-04-2020 21:22:17 14.1 C 60 %
130 23-04-2020 21:32:17 14.1 C 60 %
131 23-04-2020 21:42:17 14.1 C 60 %
132 23-04-2020 21:52:17 14.1 C 61 %
133 23-04-2020 22:02:17 14 C 61 %
134 23-04-2020 22:12:17 14.1 C 60 %
135 23-04-2020 22:22:17 14 C 59 %
136 23-04-2020 22:32:18 14 C 59 %
137 23-04-2020 22:42:18 14 C 59 %
138 23-04-2020 22:52:18 14.1 C 59 %
139 23-04-2020 23:02:18 14.1 C 59 %
140 23-04-2020 23:12:18 14.1 C 59 %
141 23-04-2020 23:22:18 14 C 59 %
142 23-04-2020 23:32:17 14.1 C 59 %
143 23-04-2020 23:42:17 14.1 C 59 %
144 23-04-2020 23:52:17 14 C 59 %
145 24-04-2020 00:02:18 14.1 C 59 %
146 24-04-2020 00:12:18 14 C 59 %
147 24-04-2020 00:22:17 14 C 59 %
148 24-04-2020 00:32:18 14 C 59 %
149 24-04-2020 00:42:18 14 C 59 %
150 24-04-2020 00:52:17 14 C 59 %
Sensor: Nr:Datum:Temp:Feuchte:
G-T/H 151 24-04-2020 01:02:18 14 C 59 %
152 24-04-2020 01:12:18 14 C 59 %
153 24-04-2020 01:22:17 14 C 59 %
154 24-04-2020 01:32:18 14 C 59 %
155 24-04-2020 01:42:18 14 C 59 %
156 24-04-2020 01:52:17 14 C 58 %
157 24-04-2020 02:02:17 14 C 58 %
158 24-04-2020 02:12:17 14 C 58 %
159 24-04-2020 02:22:17 13.9 C 59 %
160 24-04-2020 02:32:18 13.9 C 59 %
161 24-04-2020 02:42:18 13.9 C 59 %
162 24-04-2020 02:52:18 13.9 C 59 %
163 24-04-2020 03:02:17 13.9 C 59 %
164 24-04-2020 03:12:18 13.9 C 59 %
165 24-04-2020 03:22:17 13.9 C 59 %
166 24-04-2020 03:32:17 13.9 C 59 %
167 24-04-2020 03:42:17 13.9 C 59 %
168 24-04-2020 03:52:17 13.8 C 59 %
169 24-04-2020 04:02:17 13.8 C 59 %
170 24-04-2020 04:12:17 13.8 C 59 %
171 24-04-2020 04:22:17 13.8 C 59 %
172 24-04-2020 04:32:17 13.8 C 59 %
173 24-04-2020 04:42:17 13.8 C 59 %
174 24-04-2020 04:52:17 13.8 C 58 %
175 24-04-2020 05:02:17 13.8 C 58 %
Sensor: Nr:Datum:Temp:Feuchte:
G-T/H 176 24-04-2020 05:12:17 13.8 C 58 %
177 24-04-2020 05:22:17 13.7 C 58 %
178 24-04-2020 05:32:18 13.7 C 58 %
179 24-04-2020 05:42:18 13.7 C 58 %
180 24-04-2020 05:52:17 13.7 C 58 %
181 24-04-2020 06:02:17 13.7 C 58 %
182 24-04-2020 06:12:17 13.7 C 58 %
183 24-04-2020 06:22:18 13.7 C 58 %
184 24-04-2020 06:32:17 13.6 C 58 %
185 24-04-2020 06:42:17 13.6 C 58 %
186 24-04-2020 06:52:17 13.6 C 58 %
187 24-04-2020 07:02:17 13.6 C 58 %
188 24-04-2020 07:12:17 13.5 C 59 %
189 24-04-2020 07:22:17 13.6 C 59 %
190 24-04-2020 07:32:18 13.6 C 59 %
191 24-04-2020 07:42:18 13.5 C 59 %
192 24-04-2020 07:52:17 13.5 C 59 %
193 24-04-2020 08:02:18 13.5 C 59 %
194 24-04-2020 08:12:18 13.5 C 59 %
195 24-04-2020 08:22:17 13.5 C 59 %
196 24-04-2020 08:32:17 13.5 C 59 %
197 24-04-2020 08:42:17 13.5 C 59 %
198 24-04-2020 08:52:17 13.5 C 59 %
199 24-04-2020 09:02:17 13.5 C 59 %
200 24-04-2020 09:12:18 13.4 C 59 %
Sensor: Nr:Datum:Temp:Feuchte:
G-T/H 201 24-04-2020 09:22:17 13.4 C 59 %
202 24-04-2020 09:32:18 13.4 C 59 %
203 24-04-2020 09:42:18 13.4 C 59 %
204 24-04-2020 09:52:17 13.4 C 59 %
205 24-04-2020 10:02:17 13.4 C 60 %
206 24-04-2020 10:12:17 13.4 C 60 %
207 24-04-2020 10:22:17 13.4 C 60 %
208 24-04-2020 10:32:17 13.4 C 60 %
209 24-04-2020 10:42:17 13.4 C 61 %
210 24-04-2020 10:52:17 13.4 C 61 %
211 24-04-2020 11:02:17 13.4 C 61 %
212 24-04-2020 11:12:18 13.4 C 61 %
213 24-04-2020 11:22:17 13.4 C 62 %
214 24-04-2020 11:32:18 13.4 C 62 %
215 24-04-2020 11:42:18 13.5 C 62 %
216 24-04-2020 11:52:17 13.7 C 60 %
217 24-04-2020 12:02:17 14 C 59 %
218 24-04-2020 12:12:17 14.1 C 58 %
219 24-04-2020 12:22:17 14.4 C 57 %
220 24-04-2020 12:32:18 14.5 C 57 %
221 24-04-2020 12:42:18 14.6 C 56 %
222 24-04-2020 12:52:18 14.8 C 55 %
223 24-04-2020 13:02:17 14.9 C 53 %
224 24-04-2020 13:12:17 15.1 C 51 %
225 24-04-2020 13:22:17 15.2 C 50 %
Sensor: Nr:Datum:Temp:Feuchte:
G-T/H 226 24-04-2020 13:32:18 15.4 C 48 %
227 24-04-2020 13:42:18 15.5 C 46 %
228 24-04-2020 13:52:17 15.5 C 46 %
229 24-04-2020 14:02:17 15.6 C 46 %
230 24-04-2020 14:12:17 15.9 C 45 %
231 24-04-2020 14:22:17 16 C 45 %
232 24-04-2020 14:32:17 16.1 C 45 %
233 24-04-2020 14:42:17 16.2 C 46 %
234 24-04-2020 14:52:17 16.2 C 46 %
235 24-04-2020 15:02:18 16.3 C 46 %
236 24-04-2020 15:12:18 16.4 C 46 %
237 24-04-2020 15:22:17 16.6 C 45 %
238 24-04-2020 15:32:17 16.6 C 44 %
239 24-04-2020 15:42:18 16.6 C 43 %
240 24-04-2020 15:52:17 16.6 C 43 %
241 24-04-2020 16:02:18 16.7 C 42 %
242 24-04-2020 16:12:18 16.8 C 41 %
243 24-04-2020 16:22:18 16.8 C 40 %
244 24-04-2020 16:32:18 16.9 C 40 %
245 24-04-2020 16:42:18 16.9 C 39 %
246 24-04-2020 16:52:17 16.9 C 38 %
247 24-04-2020 17:02:17 17 C 37 %
248 24-04-2020 17:12:17 17.1 C 37 %
249 24-04-2020 17:22:18 17.1 C 36 %
250 24-04-2020 17:32:18 17.2 C 36 %
Sensor: Nr:Datum:Temp:Feuchte:
G-T/H 251 24-04-2020 17:42:18 17.1 C 35 %
252 24-04-2020 17:52:17 17.2 C 35 %
253 24-04-2020 18:02:18 17.2 C 35 %
254 24-04-2020 18:12:18 17.2 C 36 %
255 24-04-2020 18:22:17 17.2 C 36 %
256 24-04-2020 18:32:17 17.2 C 37 %
257 24-04-2020 18:42:17 17.2 C 38 %
258 24-04-2020 18:52:18 17.2 C 39 %
259 24-04-2020 19:02:17 17.2 C 39 %
260 24-04-2020 19:12:17 17.2 C 40 %
261 24-04-2020 19:23:17 17 C 40 %
262 24-04-2020 19:32:17 16.8 C 41 %
263 24-04-2020 19:42:18 16.7 C 42 %
264 24-04-2020 19:53:17 16.6 C 42 %
265 24-04-2020 20:02:18 16.6 C 43 %
266 24-04-2020 20:12:18 16.4 C 44 %
267 24-04-2020 20:22:17 16.5 C 44 %
268 24-04-2020 20:32:18 16.4 C 45 %
269 24-04-2020 20:42:18 16.3 C 45 %
270 24-04-2020 20:52:18 16.3 C 46 %
271 24-04-2020 21:02:18 16.3 C 46 %
272 24-04-2020 21:12:18 16.2 C 47 %
273 24-04-2020 21:23:17 16.2 C 47 %
274 24-04-2020 21:33:17 16.1 C 47 %
275 24-04-2020 21:42:17 16.1 C 48 %
Sensor: Nr:Datum:Temp:Feuchte:
G-T/H 276 24-04-2020 21:52:17 16 C 48 %
277 24-04-2020 22:03:17 16 C 49 %
278 24-04-2020 22:13:17 16 C 49 %
279 24-04-2020 22:22:18 15.9 C 50 %
280 24-04-2020 22:32:18 15.9 C 51 %
281 24-04-2020 22:42:18 15.9 C 51 %
282 24-04-2020 22:52:18 15.8 C 51 %
283 24-04-2020 23:02:18 15.8 C 52 %
284 24-04-2020 23:12:18 15.8 C 52 %
285 24-04-2020 23:22:17 15.8 C 52 %
286 24-04-2020 23:33:17 15.7 C 52 %
287 24-04-2020 23:43:17 15.7 C 53 %
288 24-04-2020 23:53:17 15.7 C 53 %

Legende:
   Min
   Max


Maximal/Minimal-Werte vom 23.04.2020 - 24.04.2020

Sensor Min Max Avg
Temp
(Aussen-T/F)
5.2 °C
23-04-2020  07:22:17
31.6 °C
23-04-2020  17:02:17
14.81 °C
Feuchte
(Aussen-T/F)
20 %
23-04-2020  00:02:17
39 %
23-04-2020  07:32:17
26.16 %
Temp
(G-T/H)
13.2 °C
23-04-2020  10:42:17
17.2 °C
24-04-2020  17:32:18
14.32 °C
Feuchte
(G-T/H)
35 %
24-04-2020  17:42:18
62 %
24-04-2020  11:22:17
55.9 %

Die Daten stammen von einer Davis Vantage Pro 2 Wetter-Station und werden unter Linux mit der Software wview2wettercgi und aufbereitet. Alle Angaben erfolgen ohne Gewähr für ihre Vollständigkeit oder Richtigkeit.
Kontakt: Rainer Krienke krienke@uni-koblenz.de . Meine Webseiten an der Uni Koblenz oder privat.
Version: $Revision: 0.78 $